Kezdőlap
METAR-TAF:

METAR-TAF

Repülőterek :

Kairói nemzetközi repülőtér

Kairó, Egyiptom

földrajzi szélesség: 30-08N, földrajzi hosszúság: 031-24E, magasság: 64 m

Jelenlegi meteorológiai megfigyelések

A jelentés 15 perccel ezelõtt készült, 12:00 UTC
Északi szél 4 kt
Hőmérséklet 29°C
Páratartalom 43%
Légköri nyomás 1012 hPa
Látótávolság 10 km, vagy több
Szórványos felhőzet 2500 lábon

METAR: HECA 181200Z 35004KT 9999 SCT025 29/15 Q1012 NOSIG

Idő: 14:15 (12:15 UTC)

Előrejelzés

A jelentés 1 órával és 15 perccel ezelõtt készült, 11:00 UTC
Az előrejelzés 18-én 12 óra UTC és 19-én 18 óra UTC között érvényes
Észak-északkeleti szél 10 kt
Látótávolság 10 km, vagy több
Szórványos felhőzet 2500 lábon

TAF: HECA 181100Z 1812/1918 02010KT 9999 SCT025

Meteorológiai megfigyelések és előrejelzések több, mint 4000 repülőtéren (METAR és TAF jelentéseket).

A térképen piros és sárga pontok jelzik az elérhető meteorológiai állomásokat.

Mozgassa az egeret a pont fölött, hogy megjelenjen az állomás neve.

Azután kattintson az időjárási megfigyelések és előrejelzések megtekintéséhez.

A térkép megváltoztatása: kattintson a fekete keresztel jelölt zöld gombra ráközelítéshez, a vonallal jelölt zöld gombra távolításhoz, vagy a zöld nyilakra a szomszédos térképek eléréséhez.


METAR-TAF: